<?xml version="1.0" encoding="UTF-8" standalone="no" ?>
<gpx xmlns="http://www.topografix.com/GPX/1/1" xmlns:xsi="http://www.w3.org/2001/XMLSchema-instance" xsi:schemaLocation="http://www.topografix.com/GPX/1/1 http://www.topografix.com/GPX/1/1/gpx.xsd" version="1.1" creator="VisuGPX - https://www.visugpx.com">
  <metadata>
    <name>LandesGenusson_Autour_15.2km</name>
    <desc><![CDATA[gnerando idor:68042498]]></desc>
  </metadata>
  <trk>
    <name><![CDATA[LandesGenusson_Autour_15.2km-6804249]]></name>
    <extensions>
      <line xmlns="http://www.topografix.com/GPX/gpx_style/0/2">
        <color>0000FF</color>
        <width>4</width>
      </line>
    </extensions>
    <trkseg>
      <trkpt lat="46.96757" lon="-1.10923">
        <ele>89</ele>
        <time>2023-11-05T10:13:54Z</time>
      </trkpt>
      <trkpt lat="46.96699" lon="-1.11056">
        <ele>88</ele>
        <time>2023-11-05T10:16:18Z</time>
      </trkpt>
      <trkpt lat="46.96652" lon="-1.11099">
        <ele>89</ele>
        <time>2023-11-05T10:17:32Z</time>
      </trkpt>
      <trkpt lat="46.9666" lon="-1.11168">
        <ele>90</ele>
        <time>2023-11-05T10:18:35Z</time>
      </trkpt>
      <trkpt lat="46.96666" lon="-1.11356">
        <ele>96</ele>
        <time>2023-11-05T10:21:27Z</time>
      </trkpt>
      <trkpt lat="46.96701" lon="-1.11485">
        <ele>101</ele>
        <time>2023-11-05T10:23:33Z</time>
      </trkpt>
      <trkpt lat="46.96748" lon="-1.1158">
        <ele>106</ele>
        <time>2023-11-05T10:25:20Z</time>
      </trkpt>
      <trkpt lat="46.96851" lon="-1.11417">
        <ele>100</ele>
        <time>2023-11-05T10:28:42Z</time>
      </trkpt>
      <trkpt lat="46.96974" lon="-1.11271">
        <ele>91</ele>
        <time>2023-11-05T10:32:14Z</time>
      </trkpt>
      <trkpt lat="46.97065" lon="-1.10867">
        <ele>89</ele>
        <time>2023-11-05T10:38:41Z</time>
      </trkpt>
      <trkpt lat="46.97281" lon="-1.10348">
        <ele>100</ele>
        <time>2023-11-05T10:47:55Z</time>
      </trkpt>
      <trkpt lat="46.96933" lon="-1.1003">
        <ele>100</ele>
        <time>2023-11-05T10:57:02Z</time>
      </trkpt>
      <trkpt lat="46.96775" lon="-1.09962">
        <ele>103</ele>
        <time>2023-11-05T11:00:42Z</time>
      </trkpt>
      <trkpt lat="46.9688" lon="-1.09751">
        <ele>101</ele>
        <time>2023-11-05T11:04:39Z</time>
      </trkpt>
      <trkpt lat="46.9693" lon="-1.09524">
        <ele>96</ele>
        <time>2023-11-05T11:08:17Z</time>
      </trkpt>
      <trkpt lat="46.96997" lon="-1.0946">
        <ele>92</ele>
        <time>2023-11-05T11:10:03Z</time>
      </trkpt>
      <trkpt lat="46.97044" lon="-1.09262">
        <ele>90</ele>
        <time>2023-11-05T11:13:14Z</time>
      </trkpt>
      <trkpt lat="46.97106" lon="-1.09211">
        <ele>86</ele>
        <time>2023-11-05T11:14:49Z</time>
      </trkpt>
      <trkpt lat="46.97038" lon="-1.09129">
        <ele>90</ele>
        <time>2023-11-05T11:16:47Z</time>
      </trkpt>
      <trkpt lat="46.96942" lon="-1.09121">
        <ele>89</ele>
        <time>2023-11-05T11:18:55Z</time>
      </trkpt>
      <trkpt lat="46.96863" lon="-1.09142">
        <ele>87</ele>
        <time>2023-11-05T11:20:42Z</time>
      </trkpt>
      <trkpt lat="46.96786" lon="-1.09292">
        <ele>96</ele>
        <time>2023-11-05T11:23:33Z</time>
      </trkpt>
      <trkpt lat="46.96564" lon="-1.09597">
        <ele>105</ele>
        <time>2023-11-05T11:30:19Z</time>
      </trkpt>
      <trkpt lat="46.96453" lon="-1.09507">
        <ele>105</ele>
        <time>2023-11-05T11:33:08Z</time>
      </trkpt>
      <trkpt lat="46.96303" lon="-1.09395">
        <ele>108</ele>
        <time>2023-11-05T11:36:53Z</time>
      </trkpt>
      <trkpt lat="46.96212" lon="-1.09451">
        <ele>106</ele>
        <time>2023-11-05T11:39:05Z</time>
      </trkpt>
      <trkpt lat="46.96107" lon="-1.09352">
        <ele>108</ele>
        <time>2023-11-05T11:41:51Z</time>
      </trkpt>
      <trkpt lat="46.95902" lon="-1.09554">
        <ele>103</ele>
        <time>2023-11-05T11:47:21Z</time>
      </trkpt>
      <trkpt lat="46.95676" lon="-1.09653">
        <ele>104</ele>
        <time>2023-11-05T11:52:36Z</time>
      </trkpt>
      <trkpt lat="46.95618" lon="-1.09833">
        <ele>104</ele>
        <time>2023-11-05T11:55:37Z</time>
      </trkpt>
      <trkpt lat="46.94754" lon="-1.09829">
        <ele>116</ele>
        <time>2023-11-05T12:14:50Z</time>
      </trkpt>
      <trkpt lat="46.94425" lon="-1.09927">
        <ele>121</ele>
        <time>2023-11-05T12:22:18Z</time>
      </trkpt>
      <trkpt lat="46.94701" lon="-1.10326">
        <ele>119</ele>
        <time>2023-11-05T12:30:56Z</time>
      </trkpt>
      <trkpt lat="46.949" lon="-1.10807">
        <ele>115</ele>
        <time>2023-11-05T12:39:28Z</time>
      </trkpt>
      <trkpt lat="46.94581" lon="-1.10927">
        <ele>112</ele>
        <time>2023-11-05T12:46:48Z</time>
      </trkpt>
      <trkpt lat="46.9454" lon="-1.11069">
        <ele>109</ele>
        <time>2023-11-05T12:49:08Z</time>
      </trkpt>
      <trkpt lat="46.94566" lon="-1.11322">
        <ele>105</ele>
        <time>2023-11-05T12:53:01Z</time>
      </trkpt>
      <trkpt lat="46.94642" lon="-1.11374">
        <ele>107</ele>
        <time>2023-11-05T12:54:53Z</time>
      </trkpt>
      <trkpt lat="46.9478" lon="-1.11369">
        <ele>110</ele>
        <time>2023-11-05T12:57:57Z</time>
      </trkpt>
      <trkpt lat="46.94897" lon="-1.11442">
        <ele>110</ele>
        <time>2023-11-05T13:00:47Z</time>
      </trkpt>
      <trkpt lat="46.95047" lon="-1.11292">
        <ele>114</ele>
        <time>2023-11-05T13:04:49Z</time>
      </trkpt>
      <trkpt lat="46.95293" lon="-1.11914">
        <ele>112</ele>
        <time>2023-11-05T13:15:44Z</time>
      </trkpt>
      <trkpt lat="46.95351" lon="-1.12318">
        <ele>109</ele>
        <time>2023-11-05T13:22:00Z</time>
      </trkpt>
      <trkpt lat="46.95383" lon="-1.12404">
        <ele>108</ele>
        <time>2023-11-05T13:23:29Z</time>
      </trkpt>
      <trkpt lat="46.95354" lon="-1.12721">
        <ele>107</ele>
        <time>2023-11-05T13:28:21Z</time>
      </trkpt>
      <trkpt lat="46.95392" lon="-1.13064">
        <ele>105</ele>
        <time>2023-11-05T13:33:37Z</time>
      </trkpt>
      <trkpt lat="46.95635" lon="-1.13567">
        <ele>99</ele>
        <time>2023-11-05T13:42:59Z</time>
      </trkpt>
      <trkpt lat="46.9565" lon="-1.13876">
        <ele>97</ele>
        <time>2023-11-05T13:47:41Z</time>
      </trkpt>
      <trkpt lat="46.9577" lon="-1.14034">
        <ele>96</ele>
        <time>2023-11-05T13:51:16Z</time>
      </trkpt>
      <trkpt lat="46.95908" lon="-1.14163">
        <ele>97</ele>
        <time>2023-11-05T13:54:54Z</time>
      </trkpt>
      <trkpt lat="46.96004" lon="-1.14215">
        <ele>100</ele>
        <time>2023-11-05T13:57:11Z</time>
      </trkpt>
      <trkpt lat="46.96154" lon="-1.1424">
        <ele>99</ele>
        <time>2023-11-05T14:00:33Z</time>
      </trkpt>
      <trkpt lat="46.96186" lon="-1.14459">
        <ele>99</ele>
        <time>2023-11-05T14:03:57Z</time>
      </trkpt>
      <trkpt lat="46.96253" lon="-1.14463">
        <ele>97</ele>
        <time>2023-11-05T14:05:26Z</time>
      </trkpt>
      <trkpt lat="46.9628" lon="-1.14112">
        <ele>96</ele>
        <time>2023-11-05T14:10:48Z</time>
      </trkpt>
      <trkpt lat="46.96368" lon="-1.13785">
        <ele>96</ele>
        <time>2023-11-05T14:16:08Z</time>
      </trkpt>
      <trkpt lat="46.96412" lon="-1.13635">
        <ele>96</ele>
        <time>2023-11-05T14:18:37Z</time>
      </trkpt>
      <trkpt lat="46.96385" lon="-1.13434">
        <ele>96</ele>
        <time>2023-11-05T14:21:43Z</time>
      </trkpt>
      <trkpt lat="46.96412" lon="-1.13185">
        <ele>98</ele>
        <time>2023-11-05T14:25:33Z</time>
      </trkpt>
      <trkpt lat="46.96356" lon="-1.13167">
        <ele>99</ele>
        <time>2023-11-05T14:26:49Z</time>
      </trkpt>
      <trkpt lat="46.96485" lon="-1.12957">
        <ele>99</ele>
        <time>2023-11-05T14:31:07Z</time>
      </trkpt>
      <trkpt lat="46.96514" lon="-1.12837">
        <ele>99</ele>
        <time>2023-11-05T14:33:02Z</time>
      </trkpt>
      <trkpt lat="46.96414" lon="-1.12691">
        <ele>99</ele>
        <time>2023-11-05T14:36:11Z</time>
      </trkpt>
      <trkpt lat="46.96373" lon="-1.12601">
        <ele>100</ele>
        <time>2023-11-05T14:37:49Z</time>
      </trkpt>
      <trkpt lat="46.96461" lon="-1.12438">
        <ele>101</ele>
        <time>2023-11-05T14:40:59Z</time>
      </trkpt>
      <trkpt lat="46.96552" lon="-1.12386">
        <ele>101</ele>
        <time>2023-11-05T14:43:09Z</time>
      </trkpt>
      <trkpt lat="46.96596" lon="-1.12425">
        <ele>100</ele>
        <time>2023-11-05T14:44:18Z</time>
      </trkpt>
      <trkpt lat="46.96646" lon="-1.12356">
        <ele>101</ele>
        <time>2023-11-05T14:45:49Z</time>
      </trkpt>
      <trkpt lat="46.96699" lon="-1.12442">
        <ele>100</ele>
        <time>2023-11-05T14:47:35Z</time>
      </trkpt>
      <trkpt lat="46.96775" lon="-1.12464">
        <ele>100</ele>
        <time>2023-11-05T14:49:18Z</time>
      </trkpt>
      <trkpt lat="46.96789" lon="-1.12283">
        <ele>100</ele>
        <time>2023-11-05T14:52:04Z</time>
      </trkpt>
      <trkpt lat="46.96786" lon="-1.11996">
        <ele>103</ele>
        <time>2023-11-05T14:56:25Z</time>
      </trkpt>
      <trkpt lat="46.96915" lon="-1.11768">
        <ele>103</ele>
        <time>2023-11-05T15:00:55Z</time>
      </trkpt>
      <trkpt lat="46.96748" lon="-1.1164">
        <ele>107</ele>
        <time>2023-11-05T15:05:07Z</time>
      </trkpt>
      <trkpt lat="46.96678" lon="-1.11288">
        <ele>94</ele>
        <time>2023-11-05T15:10:41Z</time>
      </trkpt>
      <trkpt lat="46.96669" lon="-1.11056">
        <ele>88</ele>
        <time>2023-11-05T15:14:12Z</time>
      </trkpt>
      <trkpt lat="46.96748" lon="-1.10923">
        <ele>89</ele>
        <time>2023-11-05T15:16:53Z</time>
      </trkpt>
    </trkseg>
  </trk>
</gpx>